sensor_id;sensor_type;location;lat;lon;timestamp;temperature;humidity
1996;DHT22;38556;47.068;15.408;2023-04-06T00:00:47;3.80;55.90
1996;DHT22;38556;47.068;15.408;2023-04-06T00:03:15;3.80;56.30
1996;DHT22;38556;47.068;15.408;2023-04-06T00:05:42;3.80;56.40
1996;DHT22;38556;47.068;15.408;2023-04-06T00:08:10;3.70;56.20
1996;DHT22;38556;47.068;15.408;2023-04-06T00:10:37;3.80;56.10
1996;DHT22;38556;47.068;15.408;2023-04-06T00:13:05;3.80;56.00
1996;DHT22;38556;47.068;15.408;2023-04-06T00:15:32;3.70;56.00
1996;DHT22;38556;47.068;15.408;2023-04-06T00:18:02;3.70;56.30
1996;DHT22;38556;47.068;15.408;2023-04-06T00:20:29;3.60;56.70
1996;DHT22;38556;47.068;15.408;2023-04-06T00:25:25;3.20;57.30
1996;DHT22;38556;47.068;15.408;2023-04-06T00:27:52;3.20;57.60
1996;DHT22;38556;47.068;15.408;2023-04-06T00:30:20;3.20;57.80
1996;DHT22;38556;47.068;15.408;2023-04-06T00:32:47;3.20;57.60
1996;DHT22;38556;47.068;15.408;2023-04-06T00:35:16;3.20;57.30
1996;DHT22;38556;47.068;15.408;2023-04-06T00:37:45;3.20;57.40
1996;DHT22;38556;47.068;15.408;2023-04-06T00:40:13;3.20;57.50
1996;DHT22;38556;47.068;15.408;2023-04-06T00:42:41;3.20;57.50
1996;DHT22;38556;47.068;15.408;2023-04-06T00:45:09;3.20;57.20
1996;DHT22;38556;47.068;15.408;2023-04-06T00:47:37;3.30;57.10
1996;DHT22;38556;47.068;15.408;2023-04-06T00:50:05;3.30;57.20
1996;DHT22;38556;47.068;15.408;2023-04-06T00:52:35;3.30;57.70
1996;DHT22;38556;47.068;15.408;2023-04-06T00:55:02;3.10;58.00
1996;DHT22;38556;47.068;15.408;2023-04-06T00:57:31;2.70;58.70
1996;DHT22;38556;47.068;15.408;2023-04-06T01:02:25;2.20;59.80
1996;DHT22;38556;47.068;15.408;2023-04-06T01:04:53;2.00;60.50
1996;DHT22;38556;47.068;15.408;2023-04-06T01:07:20;1.80;61.10
1996;DHT22;38556;47.068;15.408;2023-04-06T01:09:49;1.90;61.50
1996;DHT22;38556;47.068;15.408;2023-04-06T01:12:16;1.90;61.40
1996;DHT22;38556;47.068;15.408;2023-04-06T01:17:11;2.30;60.10
1996;DHT22;38556;47.068;15.408;2023-04-06T01:19:39;2.30;60.00
1996;DHT22;38556;47.068;15.408;2023-04-06T01:22:07;2.40;59.80
1996;DHT22;38556;47.068;15.408;2023-04-06T01:24:35;2.30;59.80
1996;DHT22;38556;47.068;15.408;2023-04-06T01:27:02;2.40;59.70
1996;DHT22;38556;47.068;15.408;2023-04-06T01:29:30;2.50;59.50
1996;DHT22;38556;47.068;15.408;2023-04-06T01:31:58;2.50;59.60
1996;DHT22;38556;47.068;15.408;2023-04-06T01:34:25;2.20;60.40
1996;DHT22;38556;47.068;15.408;2023-04-06T01:36:52;2.30;60.10
1996;DHT22;38556;47.068;15.408;2023-04-06T01:39:19;2.10;60.50
1996;DHT22;38556;47.068;15.408;2023-04-06T01:41:48;2.20;61.30
1996;DHT22;38556;47.068;15.408;2023-04-06T01:44:17;2.00;61.00
1996;DHT22;38556;47.068;15.408;2023-04-06T01:46:44;1.80;61.50
1996;DHT22;38556;47.068;15.408;2023-04-06T01:49:12;2.00;61.30
1996;DHT22;38556;47.068;15.408;2023-04-06T01:51:39;2.10;61.20
1996;DHT22;38556;47.068;15.408;2023-04-06T01:54:06;2.20;61.60
1996;DHT22;38556;47.068;15.408;2023-04-06T01:56:34;2.30;61.10
1996;DHT22;38556;47.068;15.408;2023-04-06T01:59:02;2.50;59.80
1996;DHT22;38556;47.068;15.408;2023-04-06T02:01:30;2.50;59.60
1996;DHT22;38556;47.068;15.408;2023-04-06T02:03:57;2.60;59.30
1996;DHT22;38556;47.068;15.408;2023-04-06T02:06:25;2.60;59.70
1996;DHT22;38556;47.068;15.408;2023-04-06T02:08:52;2.60;59.40
1996;DHT22;38556;47.068;15.408;2023-04-06T02:11:20;2.60;59.40
1996;DHT22;38556;47.068;15.408;2023-04-06T02:13:47;2.30;59.90
1996;DHT22;38556;47.068;15.408;2023-04-06T02:16:16;2.20;60.90
1996;DHT22;38556;47.068;15.408;2023-04-06T02:18:43;1.90;61.50
1996;DHT22;38556;47.068;15.408;2023-04-06T02:21:10;1.90;61.70
1996;DHT22;38556;47.068;15.408;2023-04-06T02:23:37;1.90;62.40
1996;DHT22;38556;47.068;15.408;2023-04-06T02:26:04;1.90;62.10
1996;DHT22;38556;47.068;15.408;2023-04-06T02:28:31;1.90;61.90
1996;DHT22;38556;47.068;15.408;2023-04-06T02:30:59;1.80;62.20
1996;DHT22;38556;47.068;15.408;2023-04-06T02:33:27;1.80;62.90
1996;DHT22;38556;47.068;15.408;2023-04-06T02:35:55;1.70;62.40
1996;DHT22;38556;47.068;15.408;2023-04-06T02:38:22;1.30;63.70
1996;DHT22;38556;47.068;15.408;2023-04-06T02:40:49;1.20;64.00
1996;DHT22;38556;47.068;15.408;2023-04-06T02:43:16;1.20;64.20
1996;DHT22;38556;47.068;15.408;2023-04-06T02:45:44;1.20;63.90
1996;DHT22;38556;47.068;15.408;2023-04-06T02:48:11;1.30;64.20
1996;DHT22;38556;47.068;15.408;2023-04-06T02:50:40;1.40;64.00
1996;DHT22;38556;47.068;15.408;2023-04-06T02:53:07;1.50;64.60
1996;DHT22;38556;47.068;15.408;2023-04-06T02:55:34;1.50;64.50
1996;DHT22;38556;47.068;15.408;2023-04-06T02:58:02;1.40;63.90
1996;DHT22;38556;47.068;15.408;2023-04-06T03:00:29;1.60;63.80
1996;DHT22;38556;47.068;15.408;2023-04-06T03:02:56;1.80;63.10
1996;DHT22;38556;47.068;15.408;2023-04-06T03:05:23;1.80;62.90
1996;DHT22;38556;47.068;15.408;2023-04-06T03:07:52;1.70;62.90
1996;DHT22;38556;47.068;15.408;2023-04-06T03:10:19;1.80;63.50
1996;DHT22;38556;47.068;15.408;2023-04-06T03:12:46;1.90;62.60
1996;DHT22;38556;47.068;15.408;2023-04-06T03:15:13;2.00;61.70
1996;DHT22;38556;47.068;15.408;2023-04-06T03:17:41;2.10;61.50
1996;DHT22;38556;47.068;15.408;2023-04-06T03:20:09;2.00;61.50
1996;DHT22;38556;47.068;15.408;2023-04-06T03:22:36;2.00;62.20
1996;DHT22;38556;47.068;15.408;2023-04-06T03:25:06;2.00;62.10
1996;DHT22;38556;47.068;15.408;2023-04-06T03:27:33;1.50;62.70
1996;DHT22;38556;47.068;15.408;2023-04-06T03:30:00;1.40;63.60
1996;DHT22;38556;47.068;15.408;2023-04-06T03:32:27;1.50;63.50
1996;DHT22;38556;47.068;15.408;2023-04-06T03:34:55;1.50;63.50
1996;DHT22;38556;47.068;15.408;2023-04-06T03:37:22;1.50;63.40
1996;DHT22;38556;47.068;15.408;2023-04-06T03:42:18;1.40;63.80
1996;DHT22;38556;47.068;15.408;2023-04-06T03:44:45;1.30;64.10
1996;DHT22;38556;47.068;15.408;2023-04-06T03:47:12;1.00;65.90
1996;DHT22;38556;47.068;15.408;2023-04-06T03:49:40;1.20;65.60
1996;DHT22;38556;47.068;15.408;2023-04-06T03:52:07;1.20;64.80
1996;DHT22;38556;47.068;15.408;2023-04-06T03:54:34;1.20;65.00
1996;DHT22;38556;47.068;15.408;2023-04-06T03:57:03;1.30;64.60
1996;DHT22;38556;47.068;15.408;2023-04-06T03:59:31;1.40;64.30
1996;DHT22;38556;47.068;15.408;2023-04-06T04:01:59;1.60;63.80
1996;DHT22;38556;47.068;15.408;2023-04-06T04:04:26;1.50;64.40
1996;DHT22;38556;47.068;15.408;2023-04-06T04:06:54;1.40;65.50
1996;DHT22;38556;47.068;15.408;2023-04-06T04:09:21;1.30;64.50
1996;DHT22;38556;47.068;15.408;2023-04-06T04:11:48;1.00;65.50
1996;DHT22;38556;47.068;15.408;2023-04-06T04:14:15;1.10;65.50
1996;DHT22;38556;47.068;15.408;2023-04-06T04:16:44;1.10;65.20
1996;DHT22;38556;47.068;15.408;2023-04-06T04:19:11;1.20;65.00
1996;DHT22;38556;47.068;15.408;2023-04-06T04:21:43;1.40;64.90
1996;DHT22;38556;47.068;15.408;2023-04-06T04:24:10;1.50;64.10
1996;DHT22;38556;47.068;15.408;2023-04-06T04:26:39;1.60;63.90
1996;DHT22;38556;47.068;15.408;2023-04-06T04:29:07;1.70;63.50
1996;DHT22;38556;47.068;15.408;2023-04-06T04:31:34;1.70;64.10
1996;DHT22;38556;47.068;15.408;2023-04-06T04:34:03;1.70;63.70
1996;DHT22;38556;47.068;15.408;2023-04-06T04:36:32;1.80;63.70
1996;DHT22;38556;47.068;15.408;2023-04-06T04:39:00;1.80;62.90
1996;DHT22;38556;47.068;15.408;2023-04-06T04:41:27;1.90;62.90
1996;DHT22;38556;47.068;15.408;2023-04-06T04:43:55;1.90;63.50
1996;DHT22;38556;47.068;15.408;2023-04-06T04:46:22;1.90;63.60
1996;DHT22;38556;47.068;15.408;2023-04-06T04:48:49;1.90;63.10
1996;DHT22;38556;47.068;15.408;2023-04-06T04:51:18;1.90;63.50
1996;DHT22;38556;47.068;15.408;2023-04-06T04:53:46;1.90;63.20
1996;DHT22;38556;47.068;15.408;2023-04-06T04:56:13;1.60;63.70
1996;DHT22;38556;47.068;15.408;2023-04-06T04:58:41;1.50;64.40
1996;DHT22;38556;47.068;15.408;2023-04-06T05:01:08;1.60;64.20
1996;DHT22;38556;47.068;15.408;2023-04-06T05:03:37;1.30;64.00
1996;DHT22;38556;47.068;15.408;2023-04-06T05:06:05;1.20;65.30
1996;DHT22;38556;47.068;15.408;2023-04-06T05:08:34;1.20;65.20
1996;DHT22;38556;47.068;15.408;2023-04-06T05:11:01;1.10;65.30
1996;DHT22;38556;47.068;15.408;2023-04-06T05:13:29;1.20;65.40
1996;DHT22;38556;47.068;15.408;2023-04-06T05:15:56;1.00;65.20
1996;DHT22;38556;47.068;15.408;2023-04-06T05:18:24;1.10;65.50
1996;DHT22;38556;47.068;15.408;2023-04-06T05:20:52;1.10;66.30
1996;DHT22;38556;47.068;15.408;2023-04-06T05:23:19;1.40;66.00
1996;DHT22;38556;47.068;15.408;2023-04-06T05:25:48;1.50;64.30
1996;DHT22;38556;47.068;15.408;2023-04-06T05:28:15;1.60;64.30
1996;DHT22;38556;47.068;15.408;2023-04-06T05:30:44;1.70;64.20
1996;DHT22;38556;47.068;15.408;2023-04-06T05:33:11;1.80;63.80
1996;DHT22;38556;47.068;15.408;2023-04-06T05:35:39;1.90;64.50
1996;DHT22;38556;47.068;15.408;2023-04-06T05:38:07;2.10;63.30
1996;DHT22;38556;47.068;15.408;2023-04-06T05:40:36;2.20;63.20
1996;DHT22;38556;47.068;15.408;2023-04-06T05:43:05;1.80;63.20
1996;DHT22;38556;47.068;15.408;2023-04-06T05:45:32;1.90;63.90
1996;DHT22;38556;47.068;15.408;2023-04-06T05:47:59;2.10;64.10
1996;DHT22;38556;47.068;15.408;2023-04-06T05:50:26;2.10;64.60
1996;DHT22;38556;47.068;15.408;2023-04-06T05:52:54;2.10;64.30
1996;DHT22;38556;47.068;15.408;2023-04-06T05:57:49;2.20;63.20
1996;DHT22;38556;47.068;15.408;2023-04-06T06:00:18;2.20;63.20
1996;DHT22;38556;47.068;15.408;2023-04-06T06:02:45;2.30;64.70
1996;DHT22;38556;47.068;15.408;2023-04-06T06:05:13;2.70;63.00
1996;DHT22;38556;47.068;15.408;2023-04-06T06:07:40;2.80;62.60
1996;DHT22;38556;47.068;15.408;2023-04-06T06:10:08;2.90;63.30
1996;DHT22;38556;47.068;15.408;2023-04-06T06:12:36;3.10;61.20
1996;DHT22;38556;47.068;15.408;2023-04-06T06:15:04;3.10;61.00
1996;DHT22;38556;47.068;15.408;2023-04-06T06:17:33;3.30;60.60
1996;DHT22;38556;47.068;15.408;2023-04-06T06:20:01;3.40;60.40
1996;DHT22;38556;47.068;15.408;2023-04-06T06:22:28;3.50;60.00
1996;DHT22;38556;47.068;15.408;2023-04-06T06:24:55;3.50;59.90
1996;DHT22;38556;47.068;15.408;2023-04-06T06:27:22;3.50;62.70
1996;DHT22;38556;47.068;15.408;2023-04-06T06:29:50;3.50;61.00
1996;DHT22;38556;47.068;15.408;2023-04-06T06:32:17;3.60;60.80
1996;DHT22;38556;47.068;15.408;2023-04-06T06:34:46;3.70;61.40
1996;DHT22;38556;47.068;15.408;2023-04-06T06:37:13;3.90;60.70
1996;DHT22;38556;47.068;15.408;2023-04-06T06:39:40;4.10;59.50
1996;DHT22;38556;47.068;15.408;2023-04-06T06:42:07;4.30;59.90
1996;DHT22;38556;47.068;15.408;2023-04-06T06:44:35;4.40;59.20
1996;DHT22;38556;47.068;15.408;2023-04-06T06:47:02;4.50;58.90
1996;DHT22;38556;47.068;15.408;2023-04-06T06:49:30;4.50;58.80
1996;DHT22;38556;47.068;15.408;2023-04-06T06:51:58;4.60;59.20
1996;DHT22;38556;47.068;15.408;2023-04-06T06:54:26;4.80;60.30
1996;DHT22;38556;47.068;15.408;2023-04-06T06:56:53;4.90;59.40
1996;DHT22;38556;47.068;15.408;2023-04-06T06:59:20;5.00;58.80
1996;DHT22;38556;47.068;15.408;2023-04-06T07:01:49;5.10;58.70
1996;DHT22;38556;47.068;15.408;2023-04-06T07:04:16;5.10;59.30
1996;DHT22;38556;47.068;15.408;2023-04-06T07:06:43;5.00;63.80
1996;DHT22;38556;47.068;15.408;2023-04-06T07:09:12;5.00;61.70
1996;DHT22;38556;47.068;15.408;2023-04-06T07:11:39;5.00;61.40
1996;DHT22;38556;47.068;15.408;2023-04-06T07:14:06;4.80;59.20
1996;DHT22;38556;47.068;15.408;2023-04-06T07:16:34;5.00;59.70
1996;DHT22;38556;47.068;15.408;2023-04-06T07:19:01;5.00;58.60
1996;DHT22;38556;47.068;15.408;2023-04-06T07:21:28;4.90;58.50
1996;DHT22;38556;47.068;15.408;2023-04-06T07:23:56;5.10;58.80
1996;DHT22;38556;47.068;15.408;2023-04-06T07:26:24;5.40;58.90
1996;DHT22;38556;47.068;15.408;2023-04-06T07:28:51;5.50;58.30
1996;DHT22;38556;47.068;15.408;2023-04-06T07:31:19;5.50;58.60
1996;DHT22;38556;47.068;15.408;2023-04-06T07:33:47;5.70;58.50
1996;DHT22;38556;47.068;15.408;2023-04-06T07:36:16;5.60;58.90
1996;DHT22;38556;47.068;15.408;2023-04-06T07:38:43;6.40;76.50
1996;DHT22;38556;47.068;15.408;2023-04-06T07:41:11;6.60;78.00
1996;DHT22;38556;47.068;15.408;2023-04-06T07:43:40;6.80;67.90
1996;DHT22;38556;47.068;15.408;2023-04-06T07:46:07;6.60;58.90
1996;DHT22;38556;47.068;15.408;2023-04-06T07:48:35;6.50;57.30
1996;DHT22;38556;47.068;15.408;2023-04-06T07:51:04;6.40;57.30
1996;DHT22;38556;47.068;15.408;2023-04-06T07:53:32;6.30;55.60
1996;DHT22;38556;47.068;15.408;2023-04-06T07:55:59;6.40;55.20
1996;DHT22;38556;47.068;15.408;2023-04-06T07:58:26;6.70;54.80
1996;DHT22;38556;47.068;15.408;2023-04-06T08:00:55;6.90;54.00
1996;DHT22;38556;47.068;15.408;2023-04-06T08:03:23;6.80;53.90
1996;DHT22;38556;47.068;15.408;2023-04-06T08:05:52;6.80;53.40
1996;DHT22;38556;47.068;15.408;2023-04-06T08:08:19;7.10;53.80
1996;DHT22;38556;47.068;15.408;2023-04-06T08:10:48;7.30;53.50
1996;DHT22;38556;47.068;15.408;2023-04-06T08:13:16;7.00;52.50
1996;DHT22;38556;47.068;15.408;2023-04-06T08:18:12;7.20;51.40
1996;DHT22;38556;47.068;15.408;2023-04-06T08:20:40;7.10;50.20
1996;DHT22;38556;47.068;15.408;2023-04-06T08:23:07;7.00;50.10
1996;DHT22;38556;47.068;15.408;2023-04-06T08:25:35;6.70;49.20
1996;DHT22;38556;47.068;15.408;2023-04-06T08:28:03;6.90;49.10
1996;DHT22;38556;47.068;15.408;2023-04-06T08:30:30;7.00;49.10
1996;DHT22;38556;47.068;15.408;2023-04-06T08:32:57;6.70;47.80
1996;DHT22;38556;47.068;15.408;2023-04-06T08:35:26;6.90;48.50
1996;DHT22;38556;47.068;15.408;2023-04-06T08:37:54;7.00;48.60
1996;DHT22;38556;47.068;15.408;2023-04-06T08:40:21;7.00;48.90
1996;DHT22;38556;47.068;15.408;2023-04-06T08:42:52;7.10;48.60
1996;DHT22;38556;47.068;15.408;2023-04-06T08:45:21;7.10;48.10
1996;DHT22;38556;47.068;15.408;2023-04-06T08:47:50;7.20;47.70
1996;DHT22;38556;47.068;15.408;2023-04-06T08:50:19;7.30;48.40
1996;DHT22;38556;47.068;15.408;2023-04-06T08:52:48;7.20;47.20
1996;DHT22;38556;47.068;15.408;2023-04-06T08:55:16;7.50;47.70
1996;DHT22;38556;47.068;15.408;2023-04-06T08:57:43;7.70;47.70
1996;DHT22;38556;47.068;15.408;2023-04-06T09:00:14;7.80;47.70
1996;DHT22;38556;47.068;15.408;2023-04-06T09:02:46;7.70;47.50
1996;DHT22;38556;47.068;15.408;2023-04-06T09:05:13;7.60;46.90
1996;DHT22;38556;47.068;15.408;2023-04-06T09:07:41;7.60;47.50
1996;DHT22;38556;47.068;15.408;2023-04-06T09:10:10;7.70;47.70
1996;DHT22;38556;47.068;15.408;2023-04-06T09:12:37;7.80;47.80
1996;DHT22;38556;47.068;15.408;2023-04-06T09:15:05;8.00;47.30
1996;DHT22;38556;47.068;15.408;2023-04-06T09:17:33;8.20;46.90
1996;DHT22;38556;47.068;15.408;2023-04-06T09:20:02;8.20;46.90
1996;DHT22;38556;47.068;15.408;2023-04-06T09:22:37;7.90;46.90
1996;DHT22;38556;47.068;15.408;2023-04-06T09:25:05;8.10;47.10
1996;DHT22;38556;47.068;15.408;2023-04-06T09:27:35;8.10;46.90
1996;DHT22;38556;47.068;15.408;2023-04-06T09:30:05;8.20;47.60
1996;DHT22;38556;47.068;15.408;2023-04-06T09:32:32;8.40;48.00
1996;DHT22;38556;47.068;15.408;2023-04-06T09:35:10;8.60;48.20
1996;DHT22;38556;47.068;15.408;2023-04-06T09:37:38;8.30;45.60
1996;DHT22;38556;47.068;15.408;2023-04-06T09:40:06;8.30;45.90
1996;DHT22;38556;47.068;15.408;2023-04-06T09:42:35;8.40;46.70
1996;DHT22;38556;47.068;15.408;2023-04-06T09:45:03;8.50;46.40
1996;DHT22;38556;47.068;15.408;2023-04-06T09:47:31;8.70;46.00
1996;DHT22;38556;47.068;15.408;2023-04-06T09:50:00;8.80;46.50
1996;DHT22;38556;47.068;15.408;2023-04-06T09:52:31;8.40;45.90
1996;DHT22;38556;47.068;15.408;2023-04-06T09:55:02;8.30;45.60
1996;DHT22;38556;47.068;15.408;2023-04-06T09:57:35;8.50;46.60
1996;DHT22;38556;47.068;15.408;2023-04-06T10:00:07;8.70;46.20
1996;DHT22;38556;47.068;15.408;2023-04-06T10:02:41;8.70;46.60
1996;DHT22;38556;47.068;15.408;2023-04-06T10:07:45;9.00;45.20
1996;DHT22;38556;47.068;15.408;2023-04-06T10:10:14;9.00;45.40
1996;DHT22;38556;47.068;15.408;2023-04-06T10:12:41;9.30;45.00
1996;DHT22;38556;47.068;15.408;2023-04-06T10:15:12;9.10;44.40
1996;DHT22;38556;47.068;15.408;2023-04-06T10:17:39;9.30;45.20
1996;DHT22;38556;47.068;15.408;2023-04-06T10:20:10;9.40;47.50
1996;DHT22;38556;47.068;15.408;2023-04-06T10:22:43;9.30;44.30
1996;DHT22;38556;47.068;15.408;2023-04-06T10:25:16;9.00;44.00
1996;DHT22;38556;47.068;15.408;2023-04-06T10:27:44;9.20;44.80
1996;DHT22;38556;47.068;15.408;2023-04-06T10:30:15;9.00;44.30
1996;DHT22;38556;47.068;15.408;2023-04-06T10:32:43;9.00;44.90
1996;DHT22;38556;47.068;15.408;2023-04-06T10:35:11;9.10;44.00
1996;DHT22;38556;47.068;15.408;2023-04-06T10:37:49;9.10;43.60
1996;DHT22;38556;47.068;15.408;2023-04-06T10:40:21;9.10;43.90
1996;DHT22;38556;47.068;15.408;2023-04-06T10:42:49;9.10;43.60
1996;DHT22;38556;47.068;15.408;2023-04-06T10:45:22;8.90;43.80
1996;DHT22;38556;47.068;15.408;2023-04-06T10:47:52;8.80;43.50
1996;DHT22;38556;47.068;15.408;2023-04-06T10:50:20;8.90;43.80
1996;DHT22;38556;47.068;15.408;2023-04-06T10:52:59;8.90;44.30
1996;DHT22;38556;47.068;15.408;2023-04-06T10:55:26;9.10;43.60
1996;DHT22;38556;47.068;15.408;2023-04-06T10:57:55;9.40;43.80
1996;DHT22;38556;47.068;15.408;2023-04-06T11:00:23;9.30;43.80
1996;DHT22;38556;47.068;15.408;2023-04-06T11:02:51;9.70;43.20
1996;DHT22;38556;47.068;15.408;2023-04-06T11:05:25;9.70;43.70
1996;DHT22;38556;47.068;15.408;2023-04-06T11:07:53;9.50;42.40
1996;DHT22;38556;47.068;15.408;2023-04-06T11:10:21;9.40;43.00
1996;DHT22;38556;47.068;15.408;2023-04-06T11:12:53;9.30;43.20
1996;DHT22;38556;47.068;15.408;2023-04-06T11:15:20;9.50;43.30
1996;DHT22;38556;47.068;15.408;2023-04-06T11:17:49;9.40;42.30
1996;DHT22;38556;47.068;15.408;2023-04-06T11:20:16;9.60;43.00
1996;DHT22;38556;47.068;15.408;2023-04-06T11:22:50;9.60;42.60
1996;DHT22;38556;47.068;15.408;2023-04-06T11:25:17;9.90;43.30
1996;DHT22;38556;47.068;15.408;2023-04-06T11:27:46;9.80;42.10
1996;DHT22;38556;47.068;15.408;2023-04-06T11:30:14;9.80;42.20
1996;DHT22;38556;47.068;15.408;2023-04-06T11:32:43;10.20;42.10
1996;DHT22;38556;47.068;15.408;2023-04-06T11:35:21;10.30;41.40
1996;DHT22;38556;47.068;15.408;2023-04-06T11:37:49;10.30;40.90
1996;DHT22;38556;47.068;15.408;2023-04-06T11:40:21;10.10;40.20
1996;DHT22;38556;47.068;15.408;2023-04-06T11:42:52;10.30;40.60
1996;DHT22;38556;47.068;15.408;2023-04-06T11:45:19;10.30;40.20
1996;DHT22;38556;47.068;15.408;2023-04-06T11:47:55;10.30;41.00
1996;DHT22;38556;47.068;15.408;2023-04-06T11:50:24;10.30;40.80
1996;DHT22;38556;47.068;15.408;2023-04-06T11:52:59;10.50;41.30
1996;DHT22;38556;47.068;15.408;2023-04-06T11:55:26;10.70;40.20
1996;DHT22;38556;47.068;15.408;2023-04-06T11:57:54;10.90;40.20
1996;DHT22;38556;47.068;15.408;2023-04-06T12:00:21;10.80;39.20
1996;DHT22;38556;47.068;15.408;2023-04-06T12:02:49;10.60;38.90
1996;DHT22;38556;47.068;15.408;2023-04-06T12:05:16;10.60;39.50
1996;DHT22;38556;47.068;15.408;2023-04-06T12:07:45;10.70;39.50
1996;DHT22;38556;47.068;15.408;2023-04-06T12:10:12;10.80;39.90
1996;DHT22;38556;47.068;15.408;2023-04-06T12:12:40;11.10;40.10
1996;DHT22;38556;47.068;15.408;2023-04-06T12:15:08;10.90;39.10
1996;DHT22;38556;47.068;15.408;2023-04-06T12:17:36;10.90;39.20
1996;DHT22;38556;47.068;15.408;2023-04-06T12:20:03;10.90;38.90
1996;DHT22;38556;47.068;15.408;2023-04-06T12:22:31;11.00;39.10
1996;DHT22;38556;47.068;15.408;2023-04-06T12:25:00;11.00;39.20
1996;DHT22;38556;47.068;15.408;2023-04-06T12:27:27;11.10;39.00
1996;DHT22;38556;47.068;15.408;2023-04-06T12:29:55;11.20;39.10
1996;DHT22;38556;47.068;15.408;2023-04-06T12:32:22;11.30;39.30
1996;DHT22;38556;47.068;15.408;2023-04-06T12:34:51;11.20;39.20
1996;DHT22;38556;47.068;15.408;2023-04-06T12:37:19;11.30;39.30
1996;DHT22;38556;47.068;15.408;2023-04-06T12:39:47;11.30;36.90
1996;DHT22;38556;47.068;15.408;2023-04-06T12:42:16;11.00;37.20
1996;DHT22;38556;47.068;15.408;2023-04-06T12:44:43;11.10;37.30
1996;DHT22;38556;47.068;15.408;2023-04-06T12:47:12;11.10;37.50
1996;DHT22;38556;47.068;15.408;2023-04-06T12:49:40;11.40;37.80
1996;DHT22;38556;47.068;15.408;2023-04-06T12:52:08;11.40;38.20
1996;DHT22;38556;47.068;15.408;2023-04-06T12:54:36;11.80;38.00
1996;DHT22;38556;47.068;15.408;2023-04-06T12:57:03;11.70;38.20
1996;DHT22;38556;47.068;15.408;2023-04-06T12:59:32;11.90;48.00
1996;DHT22;38556;47.068;15.408;2023-04-06T13:02:01;12.40;49.20
1996;DHT22;38556;47.068;15.408;2023-04-06T13:04:28;12.20;46.90
1996;DHT22;38556;47.068;15.408;2023-04-06T13:06:55;12.50;49.60
1996;DHT22;38556;47.068;15.408;2023-04-06T13:09:22;12.70;42.10
1996;DHT22;38556;47.068;15.408;2023-04-06T13:11:50;12.30;36.70
1996;DHT22;38556;47.068;15.408;2023-04-06T13:14:17;12.30;37.40
1996;DHT22;38556;47.068;15.408;2023-04-06T13:16:46;12.20;36.80
1996;DHT22;38556;47.068;15.408;2023-04-06T13:19:13;12.00;36.70
1996;DHT22;38556;47.068;15.408;2023-04-06T13:21:41;12.00;37.40
1996;DHT22;38556;47.068;15.408;2023-04-06T13:24:08;12.10;36.70
1996;DHT22;38556;47.068;15.408;2023-04-06T13:26:36;12.00;36.80
1996;DHT22;38556;47.068;15.408;2023-04-06T13:29:03;12.00;36.70
1996;DHT22;38556;47.068;15.408;2023-04-06T13:31:30;11.90;36.10
1996;DHT22;38556;47.068;15.408;2023-04-06T13:33:59;12.00;36.30
1996;DHT22;38556;47.068;15.408;2023-04-06T13:36:26;11.90;36.20
1996;DHT22;38556;47.068;15.408;2023-04-06T13:38:54;12.10;36.20
1996;DHT22;38556;47.068;15.408;2023-04-06T13:41:23;12.00;36.40
1996;DHT22;38556;47.068;15.408;2023-04-06T13:43:51;12.00;36.30
1996;DHT22;38556;47.068;15.408;2023-04-06T13:46:23;11.90;36.70
1996;DHT22;38556;47.068;15.408;2023-04-06T13:48:51;12.00;36.10
1996;DHT22;38556;47.068;15.408;2023-04-06T13:51:19;12.10;36.60
1996;DHT22;38556;47.068;15.408;2023-04-06T13:53:46;12.10;36.40
1996;DHT22;38556;47.068;15.408;2023-04-06T13:56:17;12.10;36.40
1996;DHT22;38556;47.068;15.408;2023-04-06T13:58:44;12.00;35.80
1996;DHT22;38556;47.068;15.408;2023-04-06T14:01:11;12.10;36.50
1996;DHT22;38556;47.068;15.408;2023-04-06T14:03:38;12.30;36.20
1996;DHT22;38556;47.068;15.408;2023-04-06T14:06:11;12.70;36.20
1996;DHT22;38556;47.068;15.408;2023-04-06T14:08:40;12.60;35.90
1996;DHT22;38556;47.068;15.408;2023-04-06T14:11:10;12.40;35.70
1996;DHT22;38556;47.068;15.408;2023-04-06T14:13:39;12.20;34.90
1996;DHT22;38556;47.068;15.408;2023-04-06T14:18:36;12.40;36.00
1996;DHT22;38556;47.068;15.408;2023-04-06T14:21:04;12.60;36.30
1996;DHT22;38556;47.068;15.408;2023-04-06T14:23:31;12.90;36.10
1996;DHT22;38556;47.068;15.408;2023-04-06T14:26:04;12.80;35.20
1996;DHT22;38556;47.068;15.408;2023-04-06T14:28:33;12.90;35.70
1996;DHT22;38556;47.068;15.408;2023-04-06T14:31:00;12.90;35.50
1996;DHT22;38556;47.068;15.408;2023-04-06T14:35:58;12.90;35.30
1996;DHT22;38556;47.068;15.408;2023-04-06T14:38:25;13.00;35.40
1996;DHT22;38556;47.068;15.408;2023-04-06T14:40:52;13.00;35.70
1996;DHT22;38556;47.068;15.408;2023-04-06T14:43:23;12.90;35.50
1996;DHT22;38556;47.068;15.408;2023-04-06T14:45:50;12.80;35.30
1996;DHT22;38556;47.068;15.408;2023-04-06T14:48:17;12.70;35.40
1996;DHT22;38556;47.068;15.408;2023-04-06T14:50:52;12.80;35.30
1996;DHT22;38556;47.068;15.408;2023-04-06T14:53:20;12.80;35.90
1996;DHT22;38556;47.068;15.408;2023-04-06T14:55:48;13.00;35.10
1996;DHT22;38556;47.068;15.408;2023-04-06T14:58:17;13.10;35.50
1996;DHT22;38556;47.068;15.408;2023-04-06T15:00:45;12.90;35.00
1996;DHT22;38556;47.068;15.408;2023-04-06T15:03:14;13.00;35.70
1996;DHT22;38556;47.068;15.408;2023-04-06T15:05:41;13.00;36.00
1996;DHT22;38556;47.068;15.408;2023-04-06T15:08:08;13.20;36.00
1996;DHT22;38556;47.068;15.408;2023-04-06T15:10:37;13.30;35.90
1996;DHT22;38556;47.068;15.408;2023-04-06T15:13:04;13.40;35.60
1996;DHT22;38556;47.068;15.408;2023-04-06T15:15:32;13.50;35.50
1996;DHT22;38556;47.068;15.408;2023-04-06T15:18:01;13.50;35.50
1996;DHT22;38556;47.068;15.408;2023-04-06T15:20:29;13.50;35.60
1996;DHT22;38556;47.068;15.408;2023-04-06T15:22:56;13.40;35.20
1996;DHT22;38556;47.068;15.408;2023-04-06T15:25:23;13.40;35.90
1996;DHT22;38556;47.068;15.408;2023-04-06T15:27:51;13.90;34.80
1996;DHT22;38556;47.068;15.408;2023-04-06T15:30:18;14.20;35.80
1996;DHT22;38556;47.068;15.408;2023-04-06T15:32:52;13.70;35.60
1996;DHT22;38556;47.068;15.408;2023-04-06T15:35:22;13.80;35.90
1996;DHT22;38556;47.068;15.408;2023-04-06T15:37:49;13.30;35.30
1996;DHT22;38556;47.068;15.408;2023-04-06T15:40:17;13.20;35.30
1996;DHT22;38556;47.068;15.408;2023-04-06T15:42:44;13.20;35.90
1996;DHT22;38556;47.068;15.408;2023-04-06T15:45:11;13.20;35.60
1996;DHT22;38556;47.068;15.408;2023-04-06T15:47:41;13.20;35.00
1996;DHT22;38556;47.068;15.408;2023-04-06T15:50:09;13.20;35.60
1996;DHT22;38556;47.068;15.408;2023-04-06T15:52:39;13.50;34.80
1996;DHT22;38556;47.068;15.408;2023-04-06T15:55:07;13.40;35.20
1996;DHT22;38556;47.068;15.408;2023-04-06T15:57:34;14.10;34.10
1996;DHT22;38556;47.068;15.408;2023-04-06T16:00:03;13.30;33.70
1996;DHT22;38556;47.068;15.408;2023-04-06T16:02:30;13.40;34.40
1996;DHT22;38556;47.068;15.408;2023-04-06T16:04:58;12.70;34.70
1996;DHT22;38556;47.068;15.408;2023-04-06T16:07:28;13.20;35.20
1996;DHT22;38556;47.068;15.408;2023-04-06T16:09:56;13.30;35.10